Time;durP1;ratioP1;P1;durP2;ratioP2;P2;SDS_P1;SDS_P2;PMS_P1;PMS_P2;Temp;Humidity;BMP_temperature;BMP_pressure;BME280_temperature;BME280_humidity;BME280_pressure;Samples;Min_cycle;Max_cycle;Signal;HPM_P1;HPM_P2
2022/04/19 00:00:55;;;;;;;4.40;3.25;;;11.10;80.20;;;;;;7339443;19;108064;-83
2022/04/19 00:03:23;;;;;;;5.70;3.00;;;11.00;80.10;;;;;;7337451;19;109036;-83
2022/04/19 00:05:50;;;;;;;5.85;3.00;;;11.00;80.50;;;;;;7338640;19;107789;-83
2022/04/19 00:08:17;;;;;;;7.57;3.40;;;11.00;80.60;;;;;;7337491;19;109167;-83
2022/04/19 00:10:44;;;;;;;4.43;3.40;;;10.90;80.90;;;;;;7338127;19;109068;-84
2022/04/19 00:13:13;;;;;;;9.30;3.40;;;10.90;80.90;;;;;;7338022;19;107921;-83
2022/04/19 00:15:40;;;;;;;8.23;3.53;;;10.80;80.80;;;;;;7338661;19;108141;-83
2022/04/19 00:18:08;;;;;;;5.63;3.20;;;10.80;80.80;;;;;;7337310;19;111267;-84
2022/04/19 00:20:38;;;;;;;4.07;3.35;;;10.80;80.80;;;;;;7344098;19;108283;-83
2022/04/19 00:23:12;;;;;;;4.82;3.70;;;10.80;80.90;;;;;;7337774;19;110556;-83
2022/04/19 00:25:41;;;;;;;6.10;3.63;;;10.80;81.10;;;;;;7338314;19;107543;-84
2022/04/19 00:28:09;;;;;;;6.20;3.60;;;10.80;81.00;;;;;;7335873;19;108811;-83
2022/04/19 00:30:37;;;;;;;6.60;3.58;;;10.70;81.00;;;;;;7338414;19;107930;-83
2022/04/19 00:33:06;;;;;;;9.05;3.45;;;10.70;81.30;;;;;;7338393;19;107258;-83
2022/04/19 00:35:34;;;;;;;6.05;3.70;;;10.60;81.20;;;;;;7339483;19;108980;-83
2022/04/19 00:38:01;;;;;;;6.70;3.45;;;10.60;81.10;;;;;;7338266;19;109615;-84
2022/04/19 00:40:28;;;;;;;6.50;3.90;;;10.60;81.40;;;;;;7343864;19;108409;-83
2022/04/19 00:42:56;;;;;;;4.22;3.67;;;10.50;81.40;;;;;;7336896;19;110331;-83
2022/04/19 00:45:24;;;;;;;5.13;4.15;;;10.50;81.30;;;;;;7339434;19;108714;-84
2022/04/19 00:47:52;;;;;;;7.03;4.15;;;10.50;81.60;;;;;;7335470;19;109980;-84
2022/04/19 00:50:20;;;;;;;6.07;4.65;;;10.50;81.60;;;;;;7339435;19;108515;-83
2022/04/19 00:52:48;;;;;;;9.40;4.35;;;10.50;82.00;;;;;;7339802;19;108776;-84
2022/04/19 00:55:15;;;;;;;8.20;4.97;;;10.50;81.90;;;;;;7336971;19;108320;-84
2022/04/19 00:57:45;;;;;;;9.02;4.53;;;10.40;81.80;;;;;;7340614;19;108944;-84
2022/04/19 01:00:12;;;;;;;7.32;4.55;;;10.40;82.20;;;;;;7338959;19;111257;-84
2022/04/19 01:02:40;;;;;;;7.40;4.78;;;10.30;82.30;;;;;;7342837;19;108705;-83
2022/04/19 01:05:08;;;;;;;6.85;4.78;;;10.30;82.60;;;;;;7335467;19;108338;-84
2022/04/19 01:07:39;;;;;;;6.63;4.78;;;10.30;82.60;;;;;;7336341;19;108337;-83
2022/04/19 01:10:08;;;;;;;5.00;4.32;;;10.30;82.80;;;;;;7336549;19;108778;-84
2022/04/19 01:15:21;;;;;;;10.45;4.90;;;10.20;83.30;;;;;;7340248;19;108610;-84
2022/04/19 01:17:48;;;;;;;10.63;4.95;;;10.10;83.80;;;;;;7339018;19;109082;-83
2022/04/19 01:20:15;;;;;;;11.15;4.70;;;10.10;84.10;;;;;;7337672;19;107950;-84
2022/04/19 01:22:43;;;;;;;8.68;4.47;;;10.10;83.70;;;;;;7339230;19;107713;-84
2022/04/19 01:25:11;;;;;;;10.63;4.97;;;10.10;83.70;;;;;;7344500;19;108827;-84
2022/04/19 01:27:38;;;;;;;7.15;4.70;;;10.10;83.80;;;;;;7336375;19;106951;-83
2022/04/19 01:30:08;;;;;;;8.25;4.22;;;10.00;84.00;;;;;;7337111;19;108921;-84
2022/04/19 01:32:36;;;;;;;6.03;4.53;;;10.00;83.70;;;;;;7337786;19;108596;-83
2022/04/19 01:35:17;;;;;;;11.70;4.90;;;10.00;83.70;;;;;;7337810;19;108024;-83
2022/04/19 01:37:47;;;;;;;7.43;4.88;;;9.90;84.30;;;;;;7339767;19;107669;-84
2022/04/19 01:40:17;;;;;;;6.22;4.60;;;9.80;84.90;;;;;;7338389;19;108311;-83
2022/04/19 01:42:57;;;;;;;7.90;4.18;;;9.80;85.20;;;;;;7334871;19;108592;-83
2022/04/19 01:45:29;;;;;;;6.03;4.30;;;9.80;85.60;;;;;;7337997;19;112604;-84
2022/04/19 01:47:58;;;;;;;7.97;5.13;;;9.70;85.70;;;;;;7341156;19;107355;-83
2022/04/19 01:50:27;;;;;;;4.93;4.40;;;9.70;86.20;;;;;;7338303;19;110365;-84
2022/04/19 01:52:56;;;;;;;10.13;5.47;;;9.60;86.00;;;;;;7337655;19;108642;-84
2022/04/19 01:55:24;;;;;;;11.93;4.80;;;9.60;86.50;;;;;;7339843;19;109520;-83
2022/04/19 01:57:56;;;;;;;9.35;4.68;;;9.60;86.00;;;;;;7337717;19;108256;-83
2022/04/19 02:00:25;;;;;;;9.55;4.68;;;9.60;86.10;;;;;;7338031;19;108735;-83
2022/04/19 02:02:55;;;;;;;9.77;4.70;;;9.60;86.00;;;;;;7338090;19;108386;-83
2022/04/19 02:05:22;;;;;;;5.00;4.50;;;9.60;85.40;;;;;;7337309;19;112350;-83
2022/04/19 02:07:50;;;;;;;7.38;4.90;;;9.60;85.50;;;;;;7337493;19;108617;-83
2022/04/19 02:10:18;;;;;;;7.22;5.13;;;9.50;85.50;;;;;;7344440;19;108268;-83
2022/04/19 02:12:46;;;;;;;8.77;4.85;;;9.50;85.60;;;;;;7338564;19;108339;-83
2022/04/19 02:15:16;;;;;;;8.20;5.15;;;9.50;85.50;;;;;;7338523;19;111139;-83
2022/04/19 02:17:47;;;;;;;7.85;4.90;;;9.40;85.70;;;;;;7333087;19;112500;-83
2022/04/19 02:20:17;;;;;;;7.60;5.05;;;9.40;85.80;;;;;;7336630;19;108057;-83
2022/04/19 02:22:45;;;;;;;7.18;4.75;;;9.40;85.90;;;;;;7338699;19;107936;-83
2022/04/19 02:25:15;;;;;;;9.32;5.05;;;9.30;86.30;;;;;;7332993;19;109042;-83
2022/04/19 02:27:43;;;;;;;5.80;5.03;;;9.30;86.50;;;;;;7335850;19;107714;-83
2022/04/19 02:30:15;;;;;;;6.45;4.68;;;9.20;86.30;;;;;;7340456;19;108705;-83
2022/04/19 02:32:47;;;;;;;7.63;5.07;;;9.20;86.40;;;;;;7337983;19;108743;-84
2022/04/19 02:35:18;;;;;;;6.72;5.25;;;9.20;86.30;;;;;;7335628;19;108955;-83
2022/04/19 02:37:53;;;;;;;13.55;5.05;;;9.20;86.50;;;;;;7334700;19;113818;-84
2022/04/19 02:40:22;;;;;;;5.57;4.40;;;9.20;86.00;;;;;;7336781;19;108017;-84
2022/04/19 02:42:52;;;;;;;6.35;4.97;;;9.10;86.00;;;;;;7341342;19;108148;-83
2022/04/19 02:45:22;;;;;;;10.63;5.28;;;9.10;86.40;;;;;;7342383;19;110938;-82
2022/04/19 02:48:04;;;;;;;8.60;4.95;;;9.10;86.60;;;;;;7342011;19;107553;-83
2022/04/19 02:50:33;;;;;;;9.32;5.20;;;9.00;86.60;;;;;;7346002;19;108335;-82
2022/04/19 02:53:01;;;;;;;11.27;5.65;;;9.00;87.00;;;;;;7350542;19;108443;-82
2022/04/19 02:55:28;;;;;;;7.88;5.60;;;8.90;88.10;;;;;;7343803;19;107959;-83
2022/04/19 02:57:56;;;;;;;8.23;4.90;;;8.80;88.70;;;;;;7345539;19;108182;-82
2022/04/19 03:00:24;;;;;;;7.57;5.20;;;8.80;88.20;;;;;;7345417;19;107908;-82
2022/04/19 03:02:52;;;;;;;8.13;5.00;;;8.80;88.50;;;;;;7343468;19;108454;-83
2022/04/19 03:05:20;;;;;;;6.72;5.38;;;8.80;87.80;;;;;;7347502;19;109199;-95
2022/04/19 03:07:48;;;;;;;10.75;5.53;;;8.80;88.90;;;;;;7355179;19;108130;-95
2022/04/19 03:10:16;;;;;;;6.03;5.25;;;8.70;89.50;;;;;;7355635;19;106356;-95
2022/04/19 03:12:46;;;;;;;11.30;5.10;;;8.70;89.50;;;;;;7354330;19;110285;-96
2022/04/19 03:15:15;;;;;;;10.18;5.10;;;8.60;89.90;;;;;;7360524;19;108380;-95
2022/04/19 03:17:43;;;;;;;7.82;5.70;;;8.60;90.00;;;;;;7354846;19;109428;-95
2022/04/19 03:20:11;;;;;;;9.45;5.70;;;8.60;90.30;;;;;;7355086;19;109411;-95
2022/04/19 03:28:10;;;;;;;7.32;5.70;;;8.30;90.80;;;;;;7355723;19;109106;-96
2022/04/19 03:30:39;;;;;;;11.20;5.47;;;8.30;91.00;;;;;;7354566;19;109044;-96
2022/04/19 03:33:06;;;;;;;7.88;5.70;;;8.30;90.90;;;;;;7355874;19;107413;-96
2022/04/19 03:35:36;;;;;;;9.15;5.97;;;8.20;91.10;;;;;;7356312;19;106399;-96
2022/04/19 03:38:08;;;;;;;9.85;5.90;;;8.20;91.10;;;;;;7360918;19;106174;-96
2022/04/19 03:40:36;;;;;;;9.68;5.60;;;8.10;91.80;;;;;;7356075;19;109338;-96
2022/04/19 03:43:07;;;;;;;8.60;6.13;;;8.00;92.30;;;;;;7354464;19;109599;-96
2022/04/19 03:45:34;;;;;;;10.32;5.85;;;8.00;92.10;;;;;;7352812;19;108818;-96
2022/04/19 03:48:02;;;;;;;8.73;5.45;;;7.90;91.90;;;;;;7354132;19;109077;-95
2022/04/19 03:50:29;;;;;;;7.88;5.78;;;7.90;91.60;;;;;;7355177;19;106711;-95
2022/04/19 03:52:57;;;;;;;8.25;5.57;;;7.90;91.80;;;;;;7353660;19;110101;-95
2022/04/19 03:55:24;;;;;;;9.50;6.18;;;7.90;91.60;;;;;;7355699;19;106277;-96
2022/04/19 03:57:51;;;;;;;9.70;6.53;;;7.90;91.60;;;;;;7353942;19;107040;-96
2022/04/19 04:00:21;;;;;;;10.52;6.32;;;7.90;91.70;;;;;;7359689;19;110085;-96
2022/04/19 04:02:49;;;;;;;8.95;6.10;;;7.80;91.90;;;;;;7354116;19;108122;-96
2022/04/19 04:05:17;;;;;;;12.55;6.43;;;7.80;91.90;;;;;;7353915;19;109264;-95
2022/04/19 04:07:44;;;;;;;9.00;6.28;;;7.80;92.10;;;;;;7354570;19;109299;-96
2022/04/19 04:10:11;;;;;;;9.18;6.10;;;7.80;92.20;;;;;;7351445;19;106504;-95
2022/04/19 04:12:39;;;;;;;12.57;6.55;;;7.70;92.50;;;;;;7353006;19;109670;-95
2022/04/19 04:15:06;;;;;;;8.93;6.28;;;7.60;92.90;;;;;;7353430;19;109031;-96
2022/04/19 04:17:34;;;;;;;14.48;6.97;;;7.60;92.60;;;;;;7353438;19;109464;-96
2022/04/19 04:20:01;;;;;;;12.88;6.18;;;7.60;92.30;;;;;;7353294;19;109370;-96
2022/04/19 04:22:28;;;;;;;10.77;6.00;;;7.60;92.40;;;;;;7358639;19;108243;-96
2022/04/19 04:24:55;;;;;;;10.57;6.70;;;7.60;92.60;;;;;;7354220;19;110166;-96
2022/04/19 04:27:23;;;;;;;11.13;6.03;;;7.60;93.00;;;;;;7353592;19;109260;-96
2022/04/19 04:29:50;;;;;;;12.07;6.33;;;7.60;92.90;;;;;;7351695;19;108334;-95
2022/04/19 04:32:17;;;;;;;11.10;6.63;;;7.60;92.90;;;;;;7353924;19;108041;-96
2022/04/19 04:34:44;;;;;;;12.57;6.65;;;7.50;93.40;;;;;;7352986;19;106960;-96
2022/04/19 04:37:12;;;;;;;15.75;7.07;;;7.50;93.10;;;;;;7352680;19;107335;-96
2022/04/19 04:39:39;;;;;;;10.32;6.55;;;7.50;92.90;;;;;;7352789;19;110946;-95
2022/04/19 04:42:07;;;;;;;11.10;6.43;;;7.50;93.00;;;;;;7357618;19;106458;-96
2022/04/19 04:44:34;;;;;;;13.45;6.78;;;7.50;92.90;;;;;;7352431;19;109322;-96
2022/04/19 04:49:47;;;;;;;14.95;6.45;;;7.50;92.90;;;;;;7353312;19;106479;-96
2022/04/19 04:52:15;;;;;;;10.93;6.23;;;7.60;92.80;;;;;;7351620;19;109443;-96
2022/04/19 04:54:43;;;;;;;10.50;5.78;;;7.80;92.60;;;;;;7352776;19;108329;-96
2022/04/19 04:57:10;;;;;;;12.63;6.25;;;7.90;92.40;;;;;;7354067;19;108621;-96
2022/04/19 04:59:38;;;;;;;10.95;6.35;;;7.90;92.40;;;;;;7352987;19;107816;-96
2022/04/19 05:02:05;;;;;;;9.87;6.70;;;7.80;92.70;;;;;;7353066;19;108000;-95
2022/04/19 05:04:33;;;;;;;13.27;7.13;;;7.80;92.80;;;;;;7355009;19;107431;-95
2022/04/19 05:07:01;;;;;;;13.07;6.93;;;7.70;93.10;;;;;;7350303;19;108496;-96
2022/04/19 05:09:28;;;;;;;10.80;7.30;;;7.70;93.30;;;;;;7353890;19;106223;-96
2022/04/19 05:11:57;;;;;;;10.00;6.60;;;7.60;93.60;;;;;;7357063;19;109948;-96
2022/04/19 05:14:28;;;;;;;8.27;7.17;;;7.70;93.50;;;;;;7359292;19;106868;-96
2022/04/19 05:17:08;;;;;;;9.57;6.80;;;7.70;93.70;;;;;;7361373;19;106487;-96
2022/04/19 05:19:40;;;;;;;17.10;7.27;;;7.70;94.70;;;;;;7347521;19;108556;-83
2022/04/19 05:22:07;;;;;;;13.20;7.87;;;7.60;95.10;;;;;;7337223;19;107194;-84
2022/04/19 05:24:34;;;;;;;13.87;7.17;;;7.60;95.70;;;;;;7341515;19;108233;-84
2022/04/19 05:27:01;;;;;;;11.40;7.53;;;7.60;96.00;;;;;;7342509;19;108433;-84
2022/04/19 05:29:28;;;;;;;15.57;8.00;;;7.70;95.40;;;;;;7340379;19;108350;-84
2022/04/19 05:31:55;;;;;;;15.07;7.80;;;7.80;96.60;;;;;;7338759;19;108973;-83
2022/04/19 05:34:22;;;;;;;;;;;7.80;95.90;;;;;;7341497;19;108256;-83
2022/04/19 05:36:49;;;;;;;9.83;6.47;;;7.90;95.80;;;;;;7343765;19;107861;-84
2022/04/19 05:39:18;;;;;;;;;;;8.10;95.00;;;;;;7339963;19;108573;-85
2022/04/19 05:41:47;;;;;;;13.85;7.95;;;8.20;94.90;;;;;;7343708;19;108364;-88
2022/04/19 05:44:13;;;;;;;14.20;8.10;;;8.30;95.00;;;;;;7338539;19;108095;-84
2022/04/19 05:46:41;;;;;;;18.45;8.90;;;8.40;96.00;;;;;;7338644;19;109422;-88
2022/04/19 05:49:12;;;;;;;11.65;8.57;;;8.50;96.00;;;;;;7343122;19;108407;-84
2022/04/19 05:51:42;;;;;;;;;;;8.60;95.90;;;;;;7341281;19;109191;-84
2022/04/19 05:54:11;;;;;;;28.92;9.52;;;8.70;96.80;;;;;;7342597;19;107787;-85
2022/04/19 05:56:38;;;;;;;17.17;9.65;;;8.70;96.30;;;;;;7339599;19;109415;-86
2022/04/19 05:59:05;;;;;;;29.73;9.80;;;8.80;96.60;;;;;;7339896;19;108084;-85
2022/04/19 06:04:52;;;;;;;22.73;8.60;;;9.00;97.10;;;;;;7337466;19;110610;-86
2022/04/19 06:07:05;;;;;;;18.80;9.82;;;9.40;97.10;;;;;;7338910;19;108978;-85
2022/04/19 06:09:32;;;;;;;16.40;9.88;;;9.50;96.60;;;;;;7335831;19;108314;-86
2022/04/19 06:12:00;;;;;;;16.75;10.23;;;9.70;96.50;;;;;;7341464;19;107902;-85
2022/04/19 06:14:27;;;;;;;21.10;10.40;;;9.80;96.20;;;;;;7334800;19;110319;-85
2022/04/19 06:16:56;;;;;;;19.25;10.75;;;9.90;96.20;;;;;;7341678;19;111835;-85
2022/04/19 06:19:23;;;;;;;19.63;10.93;;;10.10;96.10;;;;;;7339618;19;110290;-86
2022/04/19 06:21:50;;;;;;;21.17;11.45;;;10.20;96.10;;;;;;7342322;19;110960;-86
2022/04/19 06:24:17;;;;;;;21.02;11.70;;;10.20;95.90;;;;;;7341413;19;110945;-84
2022/04/19 06:26:45;;;;;;;21.55;11.63;;;10.30;95.80;;;;;;7342682;19;110267;-82
2022/04/19 06:29:12;;;;;;;19.25;11.57;;;10.40;95.70;;;;;;7343704;19;111596;-83
2022/04/19 06:31:40;;;;;;;20.17;12.07;;;10.50;95.50;;;;;;7338482;19;112480;-84
2022/04/19 06:34:08;;;;;;;20.98;11.50;;;10.60;95.30;;;;;;7345891;19;110262;-83
2022/04/19 06:36:35;;;;;;;13.93;10.48;;;10.70;95.20;;;;;;7339123;19;112183;-84
2022/04/19 06:39:02;;;;;;;19.05;11.25;;;10.90;94.90;;;;;;7340185;19;110081;-84
2022/04/19 06:41:29;;;;;;;17.33;10.88;;;11.00;94.60;;;;;;7339741;19;111702;-83
2022/04/19 06:43:58;;;;;;;17.10;11.25;;;11.20;94.30;;;;;;7342353;19;111774;-83
2022/04/19 06:46:25;;;;;;;16.55;11.77;;;11.30;94.10;;;;;;7343082;19;109727;-83
2022/04/19 06:48:59;;;;;;;22.67;11.02;;;11.40;93.70;;;;;;7339209;19;113956;-83
2022/04/19 06:51:26;;;;;;;22.52;11.82;;;11.50;93.70;;;;;;7337938;19;111879;-83
2022/04/19 06:53:59;;;;;;;18.50;12.10;;;11.50;93.70;;;;;;7347854;19;109935;-83
2022/04/19 06:56:27;;;;;;;22.00;12.23;;;11.60;93.40;;;;;;7338587;19;115592;-83
2022/04/19 06:58:54;;;;;;;21.00;12.30;;;11.70;93.60;;;;;;7341307;19;112208;-82
2022/04/19 07:01:23;;;;;;;21.77;11.82;;;11.90;93.60;;;;;;7341471;19;110805;-83
2022/04/19 07:03:50;;;;;;;19.17;12.30;;;12.00;93.30;;;;;;7342721;19;110455;-83
2022/04/19 07:06:18;;;;;;;20.98;12.10;;;12.00;93.10;;;;;;7339408;19;111676;-82
2022/04/19 07:08:45;;;;;;;21.55;11.90;;;12.10;92.40;;;;;;7339337;19;110848;-83
2022/04/19 07:11:12;;;;;;;16.45;11.10;;;12.20;92.00;;;;;;7338549;19;111743;-82
2022/04/19 07:13:39;;;;;;;20.10;11.85;;;12.30;92.40;;;;;;7341861;19;110541;-83
2022/04/19 07:16:07;;;;;;;22.33;12.50;;;12.50;92.80;;;;;;7345905;19;112042;-83
2022/04/19 07:18:35;;;;;;;21.75;12.32;;;12.70;92.70;;;;;;7341276;19;109835;-83
2022/04/19 07:26:45;;;;;;;17.33;10.95;;;13.10;91.30;;;;;;7339412;19;111283;-82
2022/04/19 07:29:18;;;;;;;21.30;11.90;;;13.30;90.80;;;;;;7341348;19;111730;-83
2022/04/19 07:31:46;;;;;;;24.27;12.23;;;13.40;90.90;;;;;;7337877;19;114296;-83
2022/04/19 07:34:14;;;;;;;18.17;10.90;;;13.50;90.80;;;;;;7338507;19;110451;-83
2022/04/19 07:36:42;;;;;;;20.17;11.30;;;13.70;90.60;;;;;;7341012;19;111808;-83
2022/04/19 07:39:11;;;;;;;20.25;12.00;;;13.70;90.70;;;;;;7343826;19;111980;-82
2022/04/19 07:41:40;;;;;;;24.42;11.60;;;13.90;89.90;;;;;;7340978;19;111760;-83
2022/04/19 07:44:15;;;;;;;19.52;11.35;;;14.00;90.40;;;;;;7339275;19;114484;-83
2022/04/19 07:46:42;;;;;;;19.35;10.88;;;14.20;90.40;;;;;;7339788;19;109819;-83
2022/04/19 07:49:10;;;;;;;19.70;10.65;;;14.20;89.50;;;;;;7341198;19;110984;-83
2022/04/19 07:51:37;;;;;;;20.88;10.85;;;14.30;89.30;;;;;;7336971;19;110735;-82
2022/04/19 07:54:04;;;;;;;22.27;11.05;;;14.30;89.40;;;;;;7340435;19;110000;-83
2022/04/19 07:56:31;;;;;;;17.25;10.77;;;14.50;90.00;;;;;;7340347;19;111460;-83
2022/04/19 07:58:59;;;;;;;16.50;10.02;;;14.60;89.30;;;;;;7340171;19;112079;-83
2022/04/19 08:01:31;;;;;;;27.15;9.85;;;14.70;87.60;;;;;;7346078;19;110830;-83
2022/04/19 08:03:58;;;;;;;13.15;9.30;;;14.90;88.60;;;;;;7342399;19;108076;-83
2022/04/19 08:06:25;;;;;;;17.10;8.85;;;15.00;86.60;;;;;;7342394;19;109772;-83
2022/04/19 08:08:52;;;;;;;14.93;8.43;;;15.10;86.20;;;;;;7344572;19;107910;-82
2022/04/19 08:11:19;;;;;;;23.33;8.98;;;15.30;85.80;;;;;;7339699;19;107225;-82
2022/04/19 08:13:46;;;;;;;11.70;8.18;;;15.30;84.80;;;;;;7343660;19;112407;-83
2022/04/19 08:16:13;;;;;;;14.48;7.88;;;15.40;84.20;;;;;;7339976;19;107803;-83
2022/04/19 08:18:43;;;;;;;17.00;8.82;;;15.50;83.50;;;;;;7342372;19;108172;-82
2022/04/19 08:21:11;;;;;;;23.70;8.65;;;15.60;82.80;;;;;;7342936;19;108106;-83
2022/04/19 08:23:38;;;;;;;11.85;8.15;;;15.70;82.50;;;;;;7346812;19;108208;-83
2022/04/19 08:26:06;;;;;;;16.05;8.35;;;15.70;81.40;;;;;;7342044;19;109372;-83
2022/04/19 08:28:33;;;;;;;15.95;8.75;;;15.80;82.40;;;;;;7340640;19;107630;-83
2022/04/19 08:31:00;;;;;;;22.20;9.20;;;16.00;80.40;;;;;;7340852;19;107551;-83
2022/04/19 08:33:28;;;;;;;12.82;8.88;;;16.00;78.30;;;;;;7343219;19;109357;-82
2022/04/19 08:35:55;;;;;;;18.17;8.85;;;16.10;79.40;;;;;;7342269;19;108504;-82
2022/04/19 08:38:22;;;;;;;16.55;9.40;;;16.20;81.20;;;;;;7340197;19;108586;-82
2022/04/19 08:40:49;;;;;;;18.25;9.85;;;16.30;79.40;;;;;;7341970;19;109597;-83
2022/04/19 08:43:17;;;;;;;16.85;9.35;;;16.40;78.40;;;;;;7342663;19;108258;-83
2022/04/19 08:45:45;;;;;;;15.60;8.85;;;16.50;76.00;;;;;;7347766;19;107845;-83
2022/04/19 08:48:15;;;;;;;16.50;8.77;;;16.60;76.00;;;;;;7342554;19;107465;-83
2022/04/19 08:50:46;;;;;;;17.00;9.25;;;16.60;74.90;;;;;;7342127;19;108204;-82
2022/04/19 08:58:45;;;;;;;13.23;8.90;;;16.80;74.70;;;;;;7342594;19;111113;-83
2022/04/19 09:01:12;;;;;;;12.80;8.48;;;16.90;73.70;;;;;;7342259;19;109005;-82
2022/04/19 09:03:41;;;;;;;13.77;8.02;;;17.00;74.60;;;;;;7341187;19;108220;-83
2022/04/19 09:06:08;;;;;;;22.08;8.95;;;17.10;72.70;;;;;;7347083;19;108130;-83
2022/04/19 09:08:36;;;;;;;15.70;8.43;;;17.30;74.10;;;;;;7340712;19;107879;-83
2022/04/19 09:11:08;;;;;;;12.23;8.55;;;17.50;72.50;;;;;;7338333;19;111202;-83
2022/04/19 09:13:36;;;;;;;15.18;8.23;;;17.50;69.20;;;;;;7342390;19;108812;-83
2022/04/19 09:16:04;;;;;;;13.55;7.50;;;17.40;69.00;;;;;;7340551;19;108316;-83
2022/04/19 09:18:35;;;;;;;11.75;7.60;;;17.60;72.20;;;;;;7340917;19;108037;-82
2022/04/19 09:21:05;;;;;;;12.65;7.53;;;17.70;69.40;;;;;;7340959;19;108924;-83
2022/04/19 09:23:34;;;;;;;16.55;7.95;;;17.70;67.90;;;;;;7339220;19;108291;-82
2022/04/19 09:26:05;;;;;;;16.05;7.05;;;17.70;67.30;;;;;;7340477;19;108169;-82
2022/04/19 09:28:38;;;;;;;15.88;7.07;;;17.80;68.40;;;;;;7347115;19;109005;-82
2022/04/19 09:31:13;;;;;;;23.02;7.38;;;17.80;69.20;;;;;;7340507;19;108522;-83
2022/04/19 09:33:41;;;;;;;10.32;6.95;;;18.00;68.20;;;;;;7340956;19;109175;-83
2022/04/19 09:36:08;;;;;;;11.25;6.78;;;18.10;67.60;;;;;;7340901;19;107804;-83
2022/04/19 09:38:42;;;;;;;10.50;6.85;;;18.20;67.60;;;;;;7339330;19;108722;-83
2022/04/19 09:41:13;;;;;;;6.50;4.80;;;18.30;67.60;;;;;;7340264;19;109089;-82
2022/04/19 09:44:09;;;;;;;12.57;5.50;;;18.40;67.10;;;;;;7339803;19;107860;-83
2022/04/19 09:46:37;;;;;;;15.45;4.95;;;18.50;66.90;;;;;;7340452;19;108808;-83
2022/04/19 09:49:06;;;;;;;10.63;5.75;;;18.50;65.60;;;;;;7338933;19;109618;-83
2022/04/19 09:51:35;;;;;;;20.58;5.80;;;18.60;66.40;;;;;;7343561;19;109539;-83
2022/04/19 09:54:03;;;;;;;17.23;5.80;;;18.80;66.20;;;;;;7339960;19;111502;-83
2022/04/19 09:56:35;;;;;;;18.15;5.97;;;18.90;66.90;;;;;;7337736;19;108340;-83
2022/04/19 09:59:20;;;;;;;13.43;5.65;;;19.00;64.10;;;;;;7340398;19;108165;-83
2022/04/19 10:10:07;;;;;;;11.43;5.68;;;19.20;65.40;;;;;;7340059;19;107898;-83
2022/04/19 10:12:35;;;;;;;22.08;6.20;;;19.10;64.30;;;;;;7337178;19;108488;-84
2022/04/19 10:15:06;;;;;;;10.43;6.07;;;19.00;64.50;;;;;;7346261;19;108204;-83
2022/04/19 10:17:36;;;;;;;9.02;5.75;;;19.20;63.40;;;;;;7336604;19;108034;-82
2022/04/19 10:20:04;;;;;;;17.42;5.53;;;19.10;62.90;;;;;;7335869;19;108131;-82
2022/04/19 10:22:32;;;;;;;9.80;5.55;;;19.20;63.70;;;;;;7337782;19;109348;-83
2022/04/19 10:25:02;;;;;;;26.02;6.50;;;19.20;63.30;;;;;;7339851;19;108523;-84
2022/04/19 10:27:34;;;;;;;14.73;6.13;;;19.30;63.80;;;;;;7339995;19;108159;-83
2022/04/19 10:30:02;;;;;;;22.25;6.10;;;19.50;64.00;;;;;;7340413;19;109533;-83
2022/04/19 10:32:33;;;;;;;14.48;5.07;;;19.60;60.20;;;;;;7338487;19;108124;-82
2022/04/19 10:35:03;;;;;;;8.88;5.53;;;19.50;60.40;;;;;;7339728;19;111734;-82
2022/04/19 10:37:32;;;;;;;8.23;5.57;;;19.50;60.70;;;;;;7344282;19;109242;-83
2022/04/19 10:39:59;;;;;;;8.23;5.32;;;19.60;60.80;;;;;;7338311;19;107010;-83
2022/04/19 10:42:29;;;;;;;15.02;5.10;;;19.60;60.00;;;;;;7336312;19;109286;-83
2022/04/19 10:44:57;;;;;;;11.35;5.03;;;19.70;61.70;;;;;;7337259;19;108059;-83
2022/04/19 10:47:26;;;;;;;11.93;5.30;;;19.80;59.80;;;;;;7337489;19;108655;-83
2022/04/19 10:50:00;;;;;;;7.90;4.50;;;20.00;60.50;;;;;;7339657;19;108872;-83
2022/04/19 10:52:36;;;;;;;8.93;4.07;;;20.00;59.40;;;;;;7335946;19;108281;-83
2022/04/19 10:55:09;;;;;;;5.90;4.20;;;20.00;56.10;;;;;;7338977;19;108796;-83
2022/04/19 11:00:33;;;;;;;4.75;3.50;;;19.70;54.70;;;;;;7343655;19;107264;-82
2022/04/19 11:03:33;;;;;;;5.75;3.63;;;19.70;55.60;;;;;;7343318;19;111050;-83
2022/04/19 11:06:05;;;;;;;10.90;4.80;;;19.70;54.70;;;;;;7346187;19;108062;-84
2022/04/19 11:08:37;;;;;;;8.27;4.35;;;19.80;57.60;;;;;;7345111;19;110960;-82
2022/04/19 11:11:20;;;;;;;6.88;4.60;;;20.00;58.50;;;;;;7345052;19;109728;-83
2022/04/19 11:14:17;;;;;;;16.45;4.57;;;20.10;58.80;;;;;;7343265;19;107546;-83
2022/04/19 11:16:45;;;;;;;5.30;4.07;;;20.30;58.20;;;;;;7342744;19;108059;-83
2022/04/19 11:19:21;;;;;;;17.73;4.70;;;20.40;57.20;;;;;;7344168;19;109229;-83
2022/04/19 11:21:52;;;;;;;6.00;4.40;;;20.30;57.00;;;;;;7350463;19;108220;-83
2022/04/19 11:24:56;;;;;;;10.75;4.28;;;20.50;57.00;;;;;;7344609;19;109387;-83
2022/04/19 11:27:44;;;;;;;7.50;3.88;;;20.50;56.30;;;;;;7343778;19;108269;-82
2022/04/19 11:30:13;;;;;;;10.43;5.25;;;20.50;57.80;;;;;;7342322;19;107222;-82
2022/04/19 11:32:43;;;;;;;9.35;5.13;;;20.50;56.40;;;;;;7343420;19;107954;-83
2022/04/19 11:35:16;;;;;;;7.80;4.70;;;20.40;56.40;;;;;;7345106;19;111680;-83
2022/04/19 11:37:46;;;;;;;7.10;4.75;;;20.40;55.30;;;;;;7343810;19;108156;-83
2022/04/19 11:48:45;;;;;;;12.40;5.05;;;20.90;56.90;;;;;;7344210;19;111268;-82
2022/04/19 11:51:14;;;;;;;10.52;4.85;;;21.00;56.50;;;;;;7342421;19;108253;-83
2022/04/19 11:53:42;;;;;;;13.20;5.55;;;21.10;56.40;;;;;;7344436;19;109279;-83
2022/04/19 11:56:10;;;;;;;10.80;5.20;;;21.20;57.50;;;;;;7343711;19;108343;-83
2022/04/19 11:58:41;;;;;;;6.60;4.70;;;21.40;57.10;;;;;;7342078;19;108220;-84
2022/04/19 12:01:10;;;;;;;8.30;5.05;;;21.60;55.50;;;;;;7344143;19;109026;-83
2022/04/19 12:03:39;;;;;;;9.90;4.55;;;21.50;55.10;;;;;;7343158;19;107381;-84
2022/04/19 12:06:11;;;;;;;20.23;5.63;;;21.50;55.60;;;;;;7344485;19;108331;-83
2022/04/19 12:08:43;;;;;;;7.35;4.63;;;21.70;56.30;;;;;;7347975;19;108898;-84
2022/04/19 12:11:27;;;;;;;10.27;5.28;;;22.00;56.60;;;;;;7344030;19;108210;-82
2022/04/19 12:13:54;;;;;;;9.00;5.20;;;22.30;55.00;;;;;;7340739;19;107849;-83
2022/04/19 12:16:29;;;;;;;11.32;5.03;;;22.30;54.40;;;;;;7339703;19;107411;-83
2022/04/19 12:18:59;;;;;;;9.77;5.03;;;22.30;53.60;;;;;;7342880;19;107837;-83
2022/04/19 12:21:40;;;;;;;10.68;5.53;;;22.20;54.20;;;;;;7342735;19;112040;-84
2022/04/19 12:24:19;;;;;;;12.55;5.32;;;22.20;52.80;;;;;;7341405;19;108088;-90
2022/04/19 12:26:51;;;;;;;6.28;4.63;;;22.10;53.10;;;;;;7339074;19;108529;-86
2022/04/19 12:29:18;;;;;;;11.15;5.40;;;22.60;54.10;;;;;;7339220;19;108912;-88
2022/04/19 12:31:47;;;;;;;25.83;5.20;;;22.90;53.00;;;;;;7345602;19;107885;-88
2022/04/19 12:34:15;;;;;;;14.20;5.03;;;23.20;53.70;;;;;;7340885;19;108851;-86
2022/04/19 12:36:49;;;;;;;11.90;5.22;;;23.40;53.80;;;;;;7338512;19;108189;-87
2022/04/19 12:39:21;;;;;;;17.08;5.43;;;23.60;52.40;;;;;;7341390;19;108347;-88
2022/04/19 12:41:49;;;;;;;21.58;4.85;;;23.80;52.40;;;;;;7338734;19;107926;-87
2022/04/19 12:44:18;;;;;;;8.32;4.47;;;23.90;52.10;;;;;;7341700;19;107612;-88
2022/04/19 12:46:51;;;;;;;12.15;4.40;;;24.10;52.70;;;;;;7341998;19;108150;-86
2022/04/19 12:49:29;;;;;;;8.93;4.45;;;24.20;50.50;;;;;;7342617;19;107966;-87
2022/04/19 12:52:07;;;;;;;5.75;4.38;;;24.30;51.10;;;;;;7342269;19;108263;-87
2022/04/19 12:54:36;;;;;;;6.13;3.95;;;24.30;50.20;;;;;;7345322;19;109364;-88
2022/04/19 12:57:14;;;;;;;9.00;3.97;;;24.30;50.00;;;;;;7342078;19;107913;-89
2022/04/19 12:59:44;;;;;;;5.93;4.20;;;24.50;49.20;;;;;;7342591;19;111820;-89
2022/04/19 13:02:14;;;;;;;11.05;4.40;;;24.50;50.70;;;;;;7339716;19;111350;-87
2022/04/19 13:04:41;;;;;;;6.32;4.10;;;24.70;49.30;;;;;;7340516;19;107506;-86
2022/04/19 13:12:41;;;;;;;6.70;5.05;;;24.70;52.40;;;;;;7339839;19;108657;-87
2022/04/19 13:15:08;;;;;;;6.80;4.90;;;24.60;49.10;;;;;;7346445;19;108265;-87
2022/04/19 13:17:37;;;;;;;9.68;4.80;;;24.50;48.80;;;;;;7340090;19;108122;-88
2022/04/19 13:20:06;;;;;;;18.88;4.97;;;24.40;48.60;;;;;;7337459;19;108201;-88
2022/04/19 13:22:34;;;;;;;10.88;5.13;;;24.50;49.50;;;;;;7340199;19;109375;-87
2022/04/19 13:25:01;;;;;;;8.48;5.13;;;24.50;48.50;;;;;;7338545;19;108211;-85
2022/04/19 13:27:32;;;;;;;5.85;4.80;;;24.40;48.80;;;;;;7338226;19;108234;-88
2022/04/19 13:30:02;;;;;;;10.05;5.68;;;24.50;49.30;;;;;;7341247;19;109174;-87
2022/04/19 13:32:30;;;;;;;11.13;5.70;;;24.50;49.20;;;;;;7338345;19;108336;-87
2022/04/19 13:34:57;;;;;;;9.55;4.85;;;24.50;48.80;;;;;;7338981;19;108556;-87